Time;durP1;ratioP1;P1;durP2;ratioP2;P2;SDS_P1;SDS_P2;PMS_P1;PMS_P2;Temp;Humidity;BMP_temperature;BMP_pressure;BME280_temperature;BME280_humidity;BME280_pressure;Samples;Min_cycle;Max_cycle;Signal;HPM_P1;HPM_P2
2021/11/15 00:01:13;;;;;;;24.35;11.10;;;;;;;6.80;100.00;101947.70;714235;1200;114005;-73
2021/11/15 00:16:16;;;;;;;29.73;13.18;;;;;;;6.76;100.00;101961.80;714259;1202;114391;-74
2021/11/15 00:31:19;;;;;;;33.90;14.20;;;;;;;6.76;100.00;101988.72;714146;1200;114655;-73
2021/11/15 00:46:21;;;;;;;38.18;15.78;;;;;;;6.77;100.00;101971.30;713816;1203;114211;-73
2021/11/15 01:01:24;;;;;;;33.33;13.93;;;;;;;6.74;100.00;101982.71;714133;1181;114228;-74
2021/11/15 01:16:26;;;;;;;29.88;13.80;;;;;;;6.75;100.00;101984.41;714255;1203;113987;-73
2021/11/15 01:31:29;;;;;;;23.38;11.50;;;;;;;6.73;100.00;101978.44;715011;1175;114680;-73
2021/11/15 01:46:31;;;;;;;26.35;11.25;;;;;;;6.70;100.00;101994.20;714215;1202;114605;-75
2021/11/15 02:01:34;;;;;;;30.28;12.20;;;;;;;6.63;100.00;101991.02;713879;1199;116090;-74
2021/11/15 02:16:37;;;;;;;20.15;10.18;;;;;;;6.57;100.00;101998.27;715220;1176;115616;-75
2021/11/15 02:31:40;;;;;;;23.20;11.95;;;;;;;6.58;100.00;101999.97;713819;1202;114381;-75
2021/11/15 02:46:43;;;;;;;28.90;12.65;;;;;;;6.54;100.00;102006.23;713919;1185;113874;-74
2021/11/15 03:01:47;;;;;;;21.98;10.80;;;;;;;6.57;100.00;102013.91;714177;1177;114216;-73
2021/11/15 03:16:49;;;;;;;22.83;10.73;;;;;;;6.56;100.00;101996.56;714210;1199;113944;-73
2021/11/15 03:31:52;;;;;;;25.80;11.78;;;;;;;6.55;100.00;102011.38;713813;1188;114165;-74
2021/11/15 03:46:54;;;;;;;24.40;11.83;;;;;;;6.53;100.00;102000.16;714276;1202;115318;-73
2021/11/15 04:01:56;;;;;;;20.73;10.68;;;;;;;6.36;100.00;101995.70;714182;1202;114534;-74
2021/11/15 04:17:00;;;;;;;20.90;10.37;;;;;;;6.45;100.00;102000.52;713925;1174;114840;-73
2021/11/15 04:32:04;;;;;;;18.60;9.65;;;;;;;6.45;100.00;102018.77;713866;1174;114242;-73
2021/11/15 04:47:06;;;;;;;23.03;12.63;;;;;;;6.38;100.00;102026.91;713987;1177;114147;-73
2021/11/15 05:02:09;;;;;;;21.43;9.85;;;;;;;6.46;100.00;102035.24;714293;1182;113973;-73
2021/11/15 05:17:11;;;;;;;23.63;10.83;;;;;;;6.43;100.00;102048.42;714047;1174;114677;-74
2021/11/15 05:32:13;;;;;;;20.98;10.03;;;;;;;6.31;100.00;102053.23;714006;1199;114056;-74
2021/11/15 05:47:16;;;;;;;44.68;17.88;;;;;;;6.31;100.00;102061.05;714149;1176;114065;-74
2021/11/15 06:02:18;;;;;;;31.77;14.60;;;;;;;6.16;100.00;102066.89;716774;1165;113960;-75
2021/11/15 06:17:20;;;;;;;30.50;14.65;;;;;;;6.20;100.00;102076.27;713892;1200;114652;-74
2021/11/15 06:32:23;;;;;;;42.60;18.00;;;;;;;6.24;100.00;102074.39;713691;1201;113857;-74
2021/11/15 06:47:25;;;;;;;34.55;17.53;;;;;;;6.23;100.00;102068.34;713835;1200;113979;-73
2021/11/15 07:02:28;;;;;;;36.75;16.58;;;;;;;6.29;100.00;102073.28;713884;1175;115131;-76
2021/11/15 07:17:31;;;;;;;74.13;28.25;;;;;;;6.45;100.00;102088.30;714043;1176;113927;-75
2021/11/15 07:32:33;;;;;;;42.35;18.85;;;;;;;6.45;100.00;102103.94;713989;1177;114014;-77
2021/11/15 07:47:37;;;;;;;44.45;20.28;;;;;;;6.54;100.00;102097.50;714244;1202;113998;-75
2021/11/15 08:02:40;;;;;;;45.03;19.05;;;;;;;6.57;100.00;102102.58;714017;1200;114124;-77
2021/11/15 08:17:47;;;;;;;42.20;19.00;;;;;;;6.71;100.00;102110.66;714266;1202;114572;-78
2021/11/15 08:32:49;;;;;;;39.50;16.75;;;;;;;6.81;100.00;102111.14;714165;1202;115773;-75
2021/11/15 08:47:52;;;;;;;38.68;16.85;;;;;;;6.89;100.00;102105.56;714086;1200;114424;-74
2021/11/15 09:02:55;;;;;;;38.35;21.30;;;;;;;6.95;100.00;102100.92;714203;1203;114335;-75
2021/11/15 09:17:57;;;;;;;40.15;21.77;;;;;;;6.98;100.00;102105.16;714274;1200;114594;-74
2021/11/15 09:33:00;;;;;;;34.03;16.45;;;;;;;7.13;100.00;102114.92;714618;1200;114209;-74
2021/11/15 09:48:03;;;;;;;35.83;18.30;;;;;;;7.04;100.00;102094.45;715054;1200;114574;-74
2021/11/15 10:03:06;;;;;;;32.00;16.35;;;;;;;7.08;100.00;102097.78;714662;1200;115023;-75
2021/11/15 10:18:12;;;;;;;52.40;21.70;;;;;;;7.09;100.00;102086.44;714497;1200;114368;-74
2021/11/15 10:33:17;;;;;;;70.40;25.85;;;;;;;7.13;100.00;102086.22;714208;1176;114574;-75
2021/11/15 10:48:20;;;;;;;36.43;19.30;;;;;;;7.20;99.92;102075.51;714491;1205;113913;-72
2021/11/15 11:03:26;;;;;;;46.83;22.28;;;;;;;7.20;100.00;102078.12;715135;1200;114323;-72
2021/11/15 11:33:35;;;;;;;55.57;25.60;;;;;;;7.16;99.22;102073.02;714700;1204;113841;-73
2021/11/15 11:48:38;;;;;;;115.30;39.50;;;;;;;7.24;99.63;102071.84;715631;1199;113809;-79
2021/11/15 12:04:01;;;;;;;53.60;26.10;;;;;;;7.24;99.20;102061.39;714629;1206;113844;-74
2021/11/15 12:19:04;;;;;;;74.75;37.20;;;;;;;7.21;100.00;102069.38;714100;1200;113855;-71
2021/11/15 12:34:06;;;;;;;60.15;27.25;;;;;;;7.23;99.83;102065.78;715474;1205;114787;-73
2021/11/15 12:49:47;;;;;;;239.03;93.20;;;;;;;7.12;100.00;102054.97;713801;1202;114984;-73
2021/11/15 13:04:50;;;;;;;512.80;322.65;;;;;;;7.10;100.00;102060.27;714053;1174;114413;-80
2021/11/15 13:19:53;;;;;;;172.73;69.35;;;;;;;7.04;100.00;102059.70;715978;1185;114334;-76
2021/11/15 13:34:55;;;;;;;107.55;43.68;;;;;;;7.11;100.00;102061.97;714606;1188;114102;-76
2021/11/15 13:49:58;;;;;;;240.43;61.90;;;;;;;7.02;100.00;102051.94;713975;1190;113901;-78
2021/11/15 14:05:04;;;;;;;113.35;37.38;;;;;;;6.92;100.00;102048.05;714020;1200;114178;-76
2021/11/15 14:20:06;;;;;;;243.83;68.25;;;;;;;6.89;100.00;102049.02;714096;1200;114406;-80
2021/11/15 14:35:09;;;;;;;169.08;55.38;;;;;;;6.99;100.00;102054.67;714164;1203;115924;-81
2021/11/15 14:50:12;;;;;;;126.53;46.63;;;;;;;6.90;100.00;102065.52;714184;1206;114121;-81
2021/11/15 15:05:14;;;;;;;300.63;75.80;;;;;;;6.85;100.00;102049.21;714169;1200;115232;-81
2021/11/15 15:20:20;;;;;;;199.30;61.35;;;;;;;6.80;100.00;102054.66;714170;1181;114148;-81
2021/11/15 15:35:24;;;;;;;190.28;58.98;;;;;;;6.80;100.00;102058.09;714320;1178;115314;-81
2021/11/15 15:50:28;;;;;;;260.35;72.88;;;;;;;6.80;100.00;102047.66;714464;1200;115423;-81
2021/11/15 16:20:34;;;;;;;145.03;46.23;;;;;;;6.89;100.00;102061.20;717233;1179;114117;-76
2021/11/15 16:35:38;;;;;;;111.37;38.00;;;;;;;6.86;100.00;102050.91;714612;1200;114705;-76
2021/11/15 16:50:44;;;;;;;79.63;27.90;;;;;;;6.78;100.00;102049.51;715796;1177;114302;-78
2021/11/15 17:05:51;;;;;;;193.90;65.55;;;;;;;6.73;100.00;102054.08;714661;1200;114717;-77
2021/11/15 17:21:01;;;;;;;106.63;42.97;;;;;;;6.68;100.00;102052.56;714799;1174;114397;-76
2021/11/15 17:36:17;;;;;;;107.03;36.90;;;;;;;6.65;100.00;102035.28;715451;1205;114018;-76
2021/11/15 17:51:23;;;;;;;98.60;35.80;;;;;;;6.58;100.00;102007.79;714984;1178;113983;-76
2021/11/15 18:06:28;;;;;;;130.90;42.50;;;;;;;6.60;100.00;102013.80;714681;1201;115390;-83
2021/11/15 18:21:30;;;;;;;132.15;40.83;;;;;;;6.53;100.00;101999.32;714789;1176;113586;-75
2021/11/15 18:36:34;;;;;;;136.20;49.37;;;;;;;6.44;100.00;102004.03;714830;1177;114078;-75
2021/11/15 18:51:37;;;;;;;116.30;38.43;;;;;;;6.29;100.00;102007.28;715687;1177;114754;-79
2021/11/15 19:06:42;;;;;;;89.60;30.90;;;;;;;6.22;100.00;102009.30;719216;1200;114309;-82
2021/11/15 19:21:46;;;;;;;83.42;32.20;;;;;;;6.14;100.00;102009.63;714491;1174;114043;-82
2021/11/15 19:37:07;;;;;;;92.75;31.70;;;;;;;6.18;100.00;102030.33;714453;1177;113903;-83
2021/11/15 19:52:13;;;;;;;136.43;43.50;;;;;;;6.23;100.00;101994.50;714625;1202;114049;-82
2021/11/15 20:07:36;;;;;;;96.63;38.47;;;;;;;6.09;100.00;102006.36;714723;1177;114609;-82
2021/11/15 20:22:39;;;;;;;97.33;36.00;;;;;;;6.14;100.00;102000.97;714761;1177;113976;-81
2021/11/15 20:37:41;;;;;;;114.90;44.75;;;;;;;6.19;100.00;101987.73;714396;1177;114038;-83
2021/11/15 20:52:52;;;;;;;96.35;35.95;;;;;;;6.34;100.00;101987.08;714573;1186;114011;-81
2021/11/15 21:07:54;;;;;;;77.43;31.50;;;;;;;6.21;100.00;101986.75;714667;1200;114293;-82
2021/11/15 21:23:01;;;;;;;82.43;32.23;;;;;;;6.27;100.00;101980.45;715714;1177;114133;-81
2021/11/15 21:38:05;;;;;;;95.83;35.57;;;;;;;6.22;100.00;101998.05;715485;1177;114578;-82
2021/11/15 21:53:07;;;;;;;124.03;42.73;;;;;;;6.21;100.00;101972.89;715052;1176;113986;-82
2021/11/15 22:08:38;;;;;;;99.63;34.50;;;;;;;6.25;100.00;101964.02;714566;1178;114942;-83
2021/11/15 22:23:53;;;;;;;64.97;26.50;;;;;;;6.24;100.00;101950.16;714807;1177;113896;-81
2021/11/15 22:38:56;;;;;;;65.03;29.18;;;;;;;6.23;100.00;101916.31;714585;1174;113916;-81
2021/11/15 22:53:58;;;;;;;59.43;27.85;;;;;;;6.20;100.00;101911.25;714684;1178;113324;-81
2021/11/15 23:09:00;;;;;;;71.48;30.25;;;;;;;6.18;100.00;101923.48;715086;1177;113881;-81
2021/11/15 23:24:03;;;;;;;67.37;25.30;;;;;;;5.99;100.00;101908.65;714582;1177;114888;-81
2021/11/15 23:39:06;;;;;;;50.35;20.68;;;;;;;6.06;100.00;101907.48;714430;1184;114012;-81
2021/11/15 23:54:08;;;;;;;50.10;21.55;;;;;;;6.11;100.00;101904.67;713936;1176;114198;-82
